sensor_id;sensor_type;location;lat;lon;timestamp;pressure;altitude;pressure_sealevel;temperature;humidity
13050;BME280;6591;51.446;5.404;2023-09-08T00:00:59;101337.31;;;25.33;42.27
13050;BME280;6591;51.446;5.404;2023-09-08T00:03:26;101333.16;;;25.29;42.50
13050;BME280;6591;51.446;5.404;2023-09-08T00:05:53;101337.91;;;25.27;42.47
13050;BME280;6591;51.446;5.404;2023-09-08T00:08:20;101332.63;;;25.25;42.60
13050;BME280;6591;51.446;5.404;2023-09-08T00:10:47;101338.06;;;25.25;42.57
13050;BME280;6591;51.446;5.404;2023-09-08T00:13:14;101347.94;;;25.26;42.57
13050;BME280;6591;51.446;5.404;2023-09-08T00:15:42;101341.09;;;25.22;42.91
13050;BME280;6591;51.446;5.404;2023-09-08T00:18:09;101342.09;;;25.21;42.88
13050;BME280;6591;51.446;5.404;2023-09-08T00:20:37;101343.97;;;25.21;42.71
13050;BME280;6591;51.446;5.404;2023-09-08T00:23:04;101344.09;;;25.19;42.52
13050;BME280;6591;51.446;5.404;2023-09-08T00:25:31;101347.28;;;25.15;42.72
13050;BME280;6591;51.446;5.404;2023-09-08T00:27:59;101345.69;;;25.12;42.80
13050;BME280;6591;51.446;5.404;2023-09-08T00:30:26;101348.75;;;25.09;43.36
13050;BME280;6591;51.446;5.404;2023-09-08T00:32:54;101346.16;;;25.08;43.30
13050;BME280;6591;51.446;5.404;2023-09-08T00:35:21;101345.63;;;25.04;43.40
13050;BME280;6591;51.446;5.404;2023-09-08T00:37:48;101345.94;;;25.01;43.61
13050;BME280;6591;51.446;5.404;2023-09-08T00:40:15;101349.66;;;25.00;43.54
13050;BME280;6591;51.446;5.404;2023-09-08T00:42:42;101345.34;;;24.98;43.41
13050;BME280;6591;51.446;5.404;2023-09-08T00:45:10;101339.38;;;24.94;43.44
13050;BME280;6591;51.446;5.404;2023-09-08T00:47:37;101334.25;;;24.91;43.64
13050;BME280;6591;51.446;5.404;2023-09-08T00:50:05;101338.97;;;24.89;44.05
13050;BME280;6591;51.446;5.404;2023-09-08T00:52:35;101344.69;;;24.86;43.44
13050;BME280;6591;51.446;5.404;2023-09-08T00:55:03;101336.81;;;24.83;44.09
13050;BME280;6591;51.446;5.404;2023-09-08T00:57:31;101336.09;;;24.81;44.04
13050;BME280;6591;51.446;5.404;2023-09-08T00:59:58;101343.69;;;24.77;44.24
13050;BME280;6591;51.446;5.404;2023-09-08T01:02:27;101342.16;;;24.75;43.94
13050;BME280;6591;51.446;5.404;2023-09-08T01:04:54;101342.44;;;24.72;44.23
13050;BME280;6591;51.446;5.404;2023-09-08T01:07:21;101342.75;;;24.69;44.08
13050;BME280;6591;51.446;5.404;2023-09-08T01:09:49;101341.16;;;24.66;44.23
13050;BME280;6591;51.446;5.404;2023-09-08T01:12:17;101345.03;;;24.64;44.62
13050;BME280;6591;51.446;5.404;2023-09-08T01:14:45;101335.50;;;24.60;44.46
13050;BME280;6591;51.446;5.404;2023-09-08T01:17:12;101339.34;;;24.57;44.54
13050;BME280;6591;51.446;5.404;2023-09-08T01:19:42;101345.22;;;24.53;44.65
13050;BME280;6591;51.446;5.404;2023-09-08T01:25:35;101335.53;;;24.40;44.88
13050;BME280;6591;51.446;5.404;2023-09-08T01:28:06;101339.22;;;24.39;44.66
13050;BME280;6591;51.446;5.404;2023-09-08T01:30:36;101335.81;;;24.37;44.81
13050;BME280;6591;51.446;5.404;2023-09-08T01:33:04;101336.97;;;24.35;44.91
13050;BME280;6591;51.446;5.404;2023-09-08T01:35:32;101338.97;;;24.33;44.97
13050;BME280;6591;51.446;5.404;2023-09-08T01:38:01;101337.53;;;24.29;45.13
13050;BME280;6591;51.446;5.404;2023-09-08T01:40:29;101344.44;;;24.23;45.12
13050;BME280;6591;51.446;5.404;2023-09-08T01:42:56;101341.84;;;24.22;45.40
13050;BME280;6591;51.446;5.404;2023-09-08T01:45:23;101340.28;;;24.19;44.94
13050;BME280;6591;51.446;5.404;2023-09-08T01:47:50;101347.81;;;24.16;45.30
13050;BME280;6591;51.446;5.404;2023-09-08T01:50:17;101340.97;;;24.12;45.33
13050;BME280;6591;51.446;5.404;2023-09-08T01:52:49;101333.09;;;24.08;45.63
13050;BME280;6591;51.446;5.404;2023-09-08T01:55:16;101337.13;;;24.04;45.51
13050;BME280;6591;51.446;5.404;2023-09-08T01:57:44;101334.84;;;24.00;45.55
13050;BME280;6591;51.446;5.404;2023-09-08T02:00:11;101336.13;;;23.96;45.63
13050;BME280;6591;51.446;5.404;2023-09-08T02:02:39;101329.25;;;23.92;45.91
13050;BME280;6591;51.446;5.404;2023-09-08T02:05:07;101331.41;;;23.88;45.43
13050;BME280;6591;51.446;5.404;2023-09-08T02:07:36;101324.69;;;23.83;45.82
13050;BME280;6591;51.446;5.404;2023-09-08T02:10:03;101330.28;;;23.81;46.00
13050;BME280;6591;51.446;5.404;2023-09-08T02:12:31;101331.56;;;23.77;46.08
13050;BME280;6591;51.446;5.404;2023-09-08T02:14:58;101332.72;;;23.75;46.21
13050;BME280;6591;51.446;5.404;2023-09-08T02:17:26;101327.56;;;23.72;46.30
13050;BME280;6591;51.446;5.404;2023-09-08T02:19:53;101332.28;;;23.70;46.02
13050;BME280;6591;51.446;5.404;2023-09-08T02:22:20;101334.28;;;23.68;47.11
13050;BME280;6591;51.446;5.404;2023-09-08T02:24:47;101333.41;;;23.67;46.19
13050;BME280;6591;51.446;5.404;2023-09-08T02:27:14;101333.56;;;23.66;46.70
13050;BME280;6591;51.446;5.404;2023-09-08T02:29:41;101322.00;;;23.63;46.50
13050;BME280;6591;51.446;5.404;2023-09-08T02:32:09;101324.00;;;23.61;46.88
13050;BME280;6591;51.446;5.404;2023-09-08T02:34:36;101320.56;;;23.59;46.60
13050;BME280;6591;51.446;5.404;2023-09-08T02:37:05;101323.28;;;23.59;47.01
13050;BME280;6591;51.446;5.404;2023-09-08T02:39:33;101322.69;;;23.56;47.06
13050;BME280;6591;51.446;5.404;2023-09-08T02:42:01;101317.56;;;23.53;47.10
13050;BME280;6591;51.446;5.404;2023-09-08T02:44:28;101315.16;;;23.50;46.86
13050;BME280;6591;51.446;5.404;2023-09-08T02:46:56;101321.56;;;23.49;46.93
13050;BME280;6591;51.446;5.404;2023-09-08T02:49:24;101322.44;;;23.49;47.23
13050;BME280;6591;51.446;5.404;2023-09-08T02:51:51;101325.41;;;23.46;47.18
13050;BME280;6591;51.446;5.404;2023-09-08T02:54:19;101322.09;;;23.43;47.18
13050;BME280;6591;51.446;5.404;2023-09-08T02:56:46;101318.53;;;23.42;47.25
13050;BME280;6591;51.446;5.404;2023-09-08T02:59:13;101324.25;;;23.39;47.03
13050;BME280;6591;51.446;5.404;2023-09-08T03:01:41;101322.66;;;23.37;47.18
13050;BME280;6591;51.446;5.404;2023-09-08T03:04:08;101324.78;;;23.33;47.62
13050;BME280;6591;51.446;5.404;2023-09-08T03:06:36;101327.63;;;23.32;47.14
13050;BME280;6591;51.446;5.404;2023-09-08T03:09:03;101315.19;;;23.29;47.38
13050;BME280;6591;51.446;5.404;2023-09-08T03:11:30;101311.78;;;23.27;47.74
13050;BME280;6591;51.446;5.404;2023-09-08T03:13:57;101317.34;;;23.26;47.39
13050;BME280;6591;51.446;5.404;2023-09-08T03:16:25;101319.19;;;23.25;47.60
13050;BME280;6591;51.446;5.404;2023-09-08T03:18:52;101315.63;;;23.24;47.47
13050;BME280;6591;51.446;5.404;2023-09-08T03:21:19;101324.91;;;23.22;47.98
13050;BME280;6591;51.446;5.404;2023-09-08T03:23:46;101324.91;;;23.22;47.26
13050;BME280;6591;51.446;5.404;2023-09-08T03:26:13;101324.03;;;23.21;48.01
13050;BME280;6591;51.446;5.404;2023-09-08T03:28:42;101325.03;;;23.20;48.11
13050;BME280;6591;51.446;5.404;2023-09-08T03:31:10;101325.31;;;23.17;48.08
13050;BME280;6591;51.446;5.404;2023-09-08T03:33:37;101319.75;;;23.19;47.85
13050;BME280;6591;51.446;5.404;2023-09-08T03:36:08;101317.19;;;23.17;48.40
13050;BME280;6591;51.446;5.404;2023-09-08T03:38:35;101317.31;;;23.16;48.04
13050;BME280;6591;51.446;5.404;2023-09-08T03:41:06;101321.75;;;23.17;48.10
13050;BME280;6591;51.446;5.404;2023-09-08T03:43:34;101320.03;;;23.16;48.28
13050;BME280;6591;51.446;5.404;2023-09-08T03:46:01;101306.63;;;23.14;48.35
13050;BME280;6591;51.446;5.404;2023-09-08T03:48:29;101319.31;;;23.14;48.36
13050;BME280;6591;51.446;5.404;2023-09-08T03:50:56;101310.31;;;23.13;48.59
13050;BME280;6591;51.446;5.404;2023-09-08T03:53:23;101311.47;;;23.11;48.32
13050;BME280;6591;51.446;5.404;2023-09-08T03:55:51;101320.47;;;23.11;48.10
13050;BME280;6591;51.446;5.404;2023-09-08T03:58:19;101311.59;;;23.09;48.88
13050;BME280;6591;51.446;5.404;2023-09-08T04:00:48;101319.03;;;23.07;48.16
13050;BME280;6591;51.446;5.404;2023-09-08T04:03:15;101317.56;;;23.03;48.60
13050;BME280;6591;51.446;5.404;2023-09-08T04:05:42;101316.88;;;23.01;48.25
13050;BME280;6591;51.446;5.404;2023-09-08T04:08:09;101312.56;;;22.99;48.15
13050;BME280;6591;51.446;5.404;2023-09-08T04:10:37;101310.16;;;22.96;48.54
13050;BME280;6591;51.446;5.404;2023-09-08T04:13:04;101310.41;;;22.93;48.58
13050;BME280;6591;51.446;5.404;2023-09-08T04:15:32;101315.13;;;22.91;48.90
13050;BME280;6591;51.446;5.404;2023-09-08T04:17:59;101316.22;;;22.88;48.95
13050;BME280;6591;51.446;5.404;2023-09-08T04:20:27;101316.41;;;22.87;48.93
13050;BME280;6591;51.446;5.404;2023-09-08T04:22:54;101316.66;;;22.84;48.89
13050;BME280;6591;51.446;5.404;2023-09-08T04:25:21;101305.94;;;22.82;48.85
13050;BME280;6591;51.446;5.404;2023-09-08T04:27:48;101302.66;;;22.78;48.43
13050;BME280;6591;51.446;5.404;2023-09-08T04:30:16;101306.53;;;22.76;48.60
13050;BME280;6591;51.446;5.404;2023-09-08T04:32:44;101299.50;;;22.73;48.96
13050;BME280;6591;51.446;5.404;2023-09-08T04:35:11;101300.50;;;22.72;48.68
13050;BME280;6591;51.446;5.404;2023-09-08T04:37:39;101302.47;;;22.70;48.93
13050;BME280;6591;51.446;5.404;2023-09-08T04:40:07;101303.59;;;22.68;49.50
13050;BME280;6591;51.446;5.404;2023-09-08T04:42:35;101306.16;;;22.69;49.36
13050;BME280;6591;51.446;5.404;2023-09-08T04:45:05;101300.75;;;22.69;49.43
13050;BME280;6591;51.446;5.404;2023-09-08T04:47:33;101301.59;;;22.70;49.14
13050;BME280;6591;51.446;5.404;2023-09-08T04:50:01;101301.59;;;22.70;49.51
13050;BME280;6591;51.446;5.404;2023-09-08T04:52:28;101309.63;;;22.71;49.24
13050;BME280;6591;51.446;5.404;2023-09-08T04:54:56;101305.44;;;22.67;49.50
13050;BME280;6591;51.446;5.404;2023-09-08T04:57:24;101301.72;;;22.68;49.80
13050;BME280;6591;51.446;5.404;2023-09-08T04:59:56;101307.03;;;22.70;49.25
13050;BME280;6591;51.446;5.404;2023-09-08T05:02:24;101299.75;;;22.70;49.80
13050;BME280;6591;51.446;5.404;2023-09-08T05:04:51;101310.34;;;22.73;49.65
13050;BME280;6591;51.446;5.404;2023-09-08T05:07:19;101309.63;;;22.71;50.09
13050;BME280;6591;51.446;5.404;2023-09-08T05:09:48;101316.50;;;22.75;49.80
13050;BME280;6591;51.446;5.404;2023-09-08T05:12:16;101315.34;;;22.78;49.76
13050;BME280;6591;51.446;5.404;2023-09-08T05:14:44;101321.38;;;22.82;50.26
13050;BME280;6591;51.446;5.404;2023-09-08T05:17:11;101313.94;;;22.84;49.74
13050;BME280;6591;51.446;5.404;2023-09-08T05:19:39;101321.66;;;22.88;49.92
13050;BME280;6591;51.446;5.404;2023-09-08T05:22:06;101318.81;;;22.90;49.70
13050;BME280;6591;51.446;5.404;2023-09-08T05:24:36;101323.25;;;22.91;49.79
13050;BME280;6591;51.446;5.404;2023-09-08T05:27:04;101320.25;;;22.94;49.89
13050;BME280;6591;51.446;5.404;2023-09-08T05:29:31;101329.22;;;22.94;49.65
13050;BME280;6591;51.446;5.404;2023-09-08T05:31:58;101323.13;;;22.92;49.59
13050;BME280;6591;51.446;5.404;2023-09-08T05:34:27;101327.38;;;22.95;49.85
13050;BME280;6591;51.446;5.404;2023-09-08T05:36:55;101329.09;;;22.96;49.81
13050;BME280;6591;51.446;5.404;2023-09-08T05:39:22;101322.53;;;22.98;49.92
13050;BME280;6591;51.446;5.404;2023-09-08T05:41:49;101322.41;;;23.00;49.85
13050;BME280;6591;51.446;5.404;2023-09-08T05:44:18;101328.41;;;23.03;50.27
13050;BME280;6591;51.446;5.404;2023-09-08T05:46:45;101332.56;;;23.07;50.31
13050;BME280;6591;51.446;5.404;2023-09-08T05:49:13;101335.84;;;23.11;50.37
13050;BME280;6591;51.446;5.404;2023-09-08T05:51:41;101330.88;;;23.16;50.51
13050;BME280;6591;51.446;5.404;2023-09-08T05:54:09;101328.72;;;23.19;50.27
13050;BME280;6591;51.446;5.404;2023-09-08T05:56:38;101334.59;;;23.24;49.99
13050;BME280;6591;51.446;5.404;2023-09-08T05:59:05;101331.34;;;23.31;50.21
13050;BME280;6591;51.446;5.404;2023-09-08T06:01:33;101325.22;;;23.38;50.63
13050;BME280;6591;51.446;5.404;2023-09-08T06:04:03;101323.81;;;23.44;50.48
13050;BME280;6591;51.446;5.404;2023-09-08T06:06:31;101326.44;;;23.55;50.37
13050;BME280;6591;51.446;5.404;2023-09-08T06:08:59;101329.16;;;23.64;50.61
13050;BME280;6591;51.446;5.404;2023-09-08T06:11:27;101336.28;;;23.75;50.60
13050;BME280;6591;51.446;5.404;2023-09-08T06:13:54;101328.84;;;23.87;50.23
13050;BME280;6591;51.446;5.404;2023-09-08T06:16:29;101325.00;;;23.99;50.37
13050;BME280;6591;51.446;5.404;2023-09-08T06:18:56;101331.69;;;24.14;50.47
13050;BME280;6591;51.446;5.404;2023-09-08T06:21:23;101341.41;;;24.26;50.25
13050;BME280;6591;51.446;5.404;2023-09-08T06:23:50;101336.25;;;24.42;50.20
13050;BME280;6591;51.446;5.404;2023-09-08T06:26:18;101342.91;;;24.58;50.26
13050;BME280;6591;51.446;5.404;2023-09-08T06:28:46;101344.00;;;24.74;49.96
13050;BME280;6591;51.446;5.404;2023-09-08T06:31:13;101342.41;;;24.91;49.65
13050;BME280;6591;51.446;5.404;2023-09-08T06:33:43;101336.16;;;25.08;49.75
13050;BME280;6591;51.446;5.404;2023-09-08T06:36:10;101338.78;;;25.27;49.52
13050;BME280;6591;51.446;5.404;2023-09-08T06:38:37;101339.66;;;25.46;49.35
13050;BME280;6591;51.446;5.404;2023-09-08T06:41:11;101339.53;;;25.65;49.06
13050;BME280;6591;51.446;5.404;2023-09-08T06:43:40;101334.81;;;25.85;48.79
13050;BME280;6591;51.446;5.404;2023-09-08T06:46:19;101339.94;;;26.05;48.39
13050;BME280;6591;51.446;5.404;2023-09-08T06:48:47;101340.63;;;26.25;48.35
13050;BME280;6591;51.446;5.404;2023-09-08T06:51:14;101340.59;;;26.43;48.53
13050;BME280;6591;51.446;5.404;2023-09-08T06:53:43;101342.06;;;26.63;48.05
13050;BME280;6591;51.446;5.404;2023-09-08T06:56:11;101350.00;;;26.82;47.53
13050;BME280;6591;51.446;5.404;2023-09-08T06:58:39;101347.06;;;27.02;47.75
13050;BME280;6591;51.446;5.404;2023-09-08T07:01:06;101343.03;;;27.22;47.20
13050;BME280;6591;51.446;5.404;2023-09-08T07:03:34;101344.66;;;27.40;47.04
13050;BME280;6591;51.446;5.404;2023-09-08T07:06:07;101340.47;;;27.62;46.71
13050;BME280;6591;51.446;5.404;2023-09-08T07:08:35;101338.13;;;27.84;47.09
13050;BME280;6591;51.446;5.404;2023-09-08T07:11:03;101348.19;;;28.07;46.66
13050;BME280;6591;51.446;5.404;2023-09-08T07:13:30;101347.38;;;28.31;46.53
13050;BME280;6591;51.446;5.404;2023-09-08T07:15:58;101344.94;;;28.52;46.28
13050;BME280;6591;51.446;5.404;2023-09-08T07:18:26;101342.19;;;28.77;45.88
13050;BME280;6591;51.446;5.404;2023-09-08T07:20:55;101346.53;;;29.02;45.45
13050;BME280;6591;51.446;5.404;2023-09-08T07:23:23;101357.19;;;29.28;45.15
13050;BME280;6591;51.446;5.404;2023-09-08T07:25:51;101349.72;;;29.53;44.92
13050;BME280;6591;51.446;5.404;2023-09-08T07:28:21;101347.88;;;29.76;44.76
13050;BME280;6591;51.446;5.404;2023-09-08T07:30:51;101349.41;;;30.01;43.83
13050;BME280;6591;51.446;5.404;2023-09-08T07:33:19;101348.16;;;30.26;43.78
13050;BME280;6591;51.446;5.404;2023-09-08T07:35:48;101352.41;;;30.52;43.92
13050;BME280;6591;51.446;5.404;2023-09-08T07:38:15;101356.59;;;30.77;43.50
13050;BME280;6591;51.446;5.404;2023-09-08T07:40:42;101353.56;;;31.01;42.68
13050;BME280;6591;51.446;5.404;2023-09-08T07:43:09;101350.53;;;31.26;42.95
13050;BME280;6591;51.446;5.404;2023-09-08T07:45:36;101351.06;;;31.50;42.06
13050;BME280;6591;51.446;5.404;2023-09-08T07:48:04;101354.31;;;31.75;41.99
13050;BME280;6591;51.446;5.404;2023-09-08T07:50:31;101346.09;;;31.96;41.53
13050;BME280;6591;51.446;5.404;2023-09-08T07:52:59;101353.94;;;32.21;41.32
13050;BME280;6591;51.446;5.404;2023-09-08T07:55:26;101351.81;;;32.44;40.81
13050;BME280;6591;51.446;5.404;2023-09-08T07:57:55;101346.91;;;32.67;41.00
13050;BME280;6591;51.446;5.404;2023-09-08T08:00:22;101342.00;;;32.91;40.05
13050;BME280;6591;51.446;5.404;2023-09-08T08:02:54;101336.16;;;33.13;40.26
13050;BME280;6591;51.446;5.404;2023-09-08T08:05:22;101336.28;;;33.40;39.63
13050;BME280;6591;51.446;5.404;2023-09-08T08:07:50;101345.72;;;33.65;39.30
13050;BME280;6591;51.446;5.404;2023-09-08T08:10:18;101330.72;;;33.87;38.85
13050;BME280;6591;51.446;5.404;2023-09-08T08:12:45;101336.69;;;34.11;38.61
13050;BME280;6591;51.446;5.404;2023-09-08T08:15:12;101338.41;;;34.31;37.99
13050;BME280;6591;51.446;5.404;2023-09-08T08:17:40;101336.47;;;34.52;37.63
13050;BME280;6591;51.446;5.404;2023-09-08T08:20:10;101344.53;;;34.73;37.49
13050;BME280;6591;51.446;5.404;2023-09-08T08:22:45;101347.69;;;34.96;37.46
13050;BME280;6591;51.446;5.404;2023-09-08T08:25:13;101343.56;;;35.18;36.90
13050;BME280;6591;51.446;5.404;2023-09-08T08:27:41;101350.50;;;35.41;36.44
13050;BME280;6591;51.446;5.404;2023-09-08T08:30:09;101355.69;;;35.62;35.82
13050;BME280;6591;51.446;5.404;2023-09-08T08:32:39;101356.03;;;35.85;36.29
13050;BME280;6591;51.446;5.404;2023-09-08T08:35:07;101349.03;;;36.07;35.58
13050;BME280;6591;51.446;5.404;2023-09-08T08:37:34;101344.19;;;36.28;35.35
13050;BME280;6591;51.446;5.404;2023-09-08T08:40:01;101348.72;;;36.47;35.31
13050;BME280;6591;51.446;5.404;2023-09-08T08:42:33;101348.34;;;36.68;34.23
13050;BME280;6591;51.446;5.404;2023-09-08T08:45:03;101354.28;;;36.90;34.53
13050;BME280;6591;51.446;5.404;2023-09-08T08:47:31;101343.84;;;37.10;34.13
13050;BME280;6591;51.446;5.404;2023-09-08T08:50:00;101356.97;;;37.33;33.36
13050;BME280;6591;51.446;5.404;2023-09-08T08:52:30;101345.84;;;37.51;33.54
13050;BME280;6591;51.446;5.404;2023-09-08T08:54:57;101345.47;;;37.66;32.60
13050;BME280;6591;51.446;5.404;2023-09-08T08:57:25;101342.25;;;37.81;32.50
13050;BME280;6591;51.446;5.404;2023-09-08T08:59:54;101347.34;;;37.95;32.39
13050;BME280;6591;51.446;5.404;2023-09-08T09:02:25;101339.47;;;38.10;32.11
13050;BME280;6591;51.446;5.404;2023-09-08T09:04:53;101344.69;;;38.30;32.48
13050;BME280;6591;51.446;5.404;2023-09-08T09:07:20;101340.97;;;38.48;31.95
13050;BME280;6591;51.446;5.404;2023-09-08T09:09:48;101346.63;;;38.65;31.52
13050;BME280;6591;51.446;5.404;2023-09-08T09:12:15;101342.16;;;38.75;31.16
13050;BME280;6591;51.446;5.404;2023-09-08T09:14:47;101339.84;;;38.84;31.21
13050;BME280;6591;51.446;5.404;2023-09-08T09:17:15;101347.00;;;38.91;30.83
13050;BME280;6591;51.446;5.404;2023-09-08T09:19:42;101347.22;;;39.02;30.77
13050;BME280;6591;51.446;5.404;2023-09-08T09:22:09;101349.97;;;39.13;30.69
13050;BME280;6591;51.446;5.404;2023-09-08T09:24:41;101347.28;;;39.30;30.31
13050;BME280;6591;51.446;5.404;2023-09-08T09:27:12;101350.25;;;39.52;30.51
13050;BME280;6591;51.446;5.404;2023-09-08T09:29:50;101341.44;;;39.71;30.00
13050;BME280;6591;51.446;5.404;2023-09-08T09:32:23;101338.28;;;39.96;29.94
13050;BME280;6591;51.446;5.404;2023-09-08T09:34:53;101338.75;;;40.21;29.96
13050;BME280;6591;51.446;5.404;2023-09-08T09:37:21;101341.00;;;40.41;29.52
13050;BME280;6591;51.446;5.404;2023-09-08T09:39:50;101337.47;;;40.62;29.23
13050;BME280;6591;51.446;5.404;2023-09-08T09:42:21;101335.56;;;40.85;28.97
13050;BME280;6591;51.446;5.404;2023-09-08T09:44:49;101340.59;;;41.04;28.54
13050;BME280;6591;51.446;5.404;2023-09-08T09:47:19;101336.63;;;41.22;28.67
13050;BME280;6591;51.446;5.404;2023-09-08T09:49:49;101344.94;;;41.39;28.41
13050;BME280;6591;51.446;5.404;2023-09-08T09:52:24;101342.34;;;41.54;27.63
13050;BME280;6591;51.446;5.404;2023-09-08T09:54:53;101343.09;;;41.71;27.81
13050;BME280;6591;51.446;5.404;2023-09-08T09:57:22;101341.88;;;41.89;27.11
13050;BME280;6591;51.446;5.404;2023-09-08T09:59:51;101341.16;;;42.04;27.12
13050;BME280;6591;51.446;5.404;2023-09-08T10:02:21;101341.28;;;42.19;27.47
13050;BME280;6591;51.446;5.404;2023-09-08T10:04:50;101343.09;;;42.30;26.88
13050;BME280;6591;51.446;5.404;2023-09-08T10:07:18;101338.72;;;42.39;26.74
13050;BME280;6591;51.446;5.404;2023-09-08T10:09:46;101336.50;;;42.46;26.77
13050;BME280;6591;51.446;5.404;2023-09-08T10:12:15;101335.44;;;42.52;26.54
13050;BME280;6591;51.446;5.404;2023-09-08T10:14:45;101339.38;;;42.61;26.66
13050;BME280;6591;51.446;5.404;2023-09-08T10:17:18;101339.47;;;42.72;25.80
13050;BME280;6591;51.446;5.404;2023-09-08T10:19:49;101336.78;;;42.87;26.29
13050;BME280;6591;51.446;5.404;2023-09-08T10:22:20;101339.91;;;43.00;25.86
13050;BME280;6591;51.446;5.404;2023-09-08T10:24:54;101340.84;;;43.16;25.68
13050;BME280;6591;51.446;5.404;2023-09-08T10:27:23;101337.25;;;43.31;25.48
13050;BME280;6591;51.446;5.404;2023-09-08T10:29:54;101343.75;;;43.46;25.24
13050;BME280;6591;51.446;5.404;2023-09-08T10:32:22;101337.66;;;43.60;24.81
13050;BME280;6591;51.446;5.404;2023-09-08T10:34:51;101327.31;;;43.75;24.59
13050;BME280;6591;51.446;5.404;2023-09-08T10:37:25;101333.25;;;43.89;24.67
13050;BME280;6591;51.446;5.404;2023-09-08T10:39:52;101334.09;;;44.05;24.57
13050;BME280;6591;51.446;5.404;2023-09-08T10:42:24;101332.69;;;44.22;24.44
13050;BME280;6591;51.446;5.404;2023-09-08T10:44:58;101335.19;;;44.34;23.87
13050;BME280;6591;51.446;5.404;2023-09-08T10:47:40;101320.38;;;44.39;23.67
13050;BME280;6591;51.446;5.404;2023-09-08T10:50:17;101325.38;;;44.47;23.79
13050;BME280;6591;51.446;5.404;2023-09-08T10:52:45;101318.91;;;44.56;23.36
13050;BME280;6591;51.446;5.404;2023-09-08T10:58:37;101325.63;;;44.65;23.79
13050;BME280;6591;51.446;5.404;2023-09-08T11:01:17;101327.63;;;44.70;23.52
13050;BME280;6591;51.446;5.404;2023-09-08T11:03:47;101330.91;;;44.82;23.37
13050;BME280;6591;51.446;5.404;2023-09-08T11:06:20;101333.16;;;44.90;23.44
13050;BME280;6591;51.446;5.404;2023-09-08T11:08:50;101320.22;;;45.04;23.13
13050;BME280;6591;51.446;5.404;2023-09-08T11:11:23;101324.94;;;45.14;22.83
13050;BME280;6591;51.446;5.404;2023-09-08T11:13:50;101321.81;;;45.21;22.71
13050;BME280;6591;51.446;5.404;2023-09-08T11:16:17;101321.22;;;45.24;22.95
13050;BME280;6591;51.446;5.404;2023-09-08T11:18:51;101321.47;;;45.32;22.94
13050;BME280;6591;51.446;5.404;2023-09-08T11:21:19;101328.44;;;45.45;22.46
13050;BME280;6591;51.446;5.404;2023-09-08T11:23:47;101326.13;;;45.57;22.52
13050;BME280;6591;51.446;5.404;2023-09-08T11:26:14;101326.88;;;45.68;22.27
13050;BME280;6591;51.446;5.404;2023-09-08T11:28:44;101325.13;;;45.77;21.99
13050;BME280;6591;51.446;5.404;2023-09-08T11:31:16;101321.41;;;45.86;22.24
13050;BME280;6591;51.446;5.404;2023-09-08T11:33:43;101316.03;;;45.95;22.26
13050;BME280;6591;51.446;5.404;2023-09-08T11:36:14;101317.63;;;46.01;21.36
13050;BME280;6591;51.446;5.404;2023-09-08T11:38:46;101315.09;;;46.05;21.85
13050;BME280;6591;51.446;5.404;2023-09-08T11:41:16;101316.19;;;46.09;21.63
13050;BME280;6591;51.446;5.404;2023-09-08T11:43:44;101308.31;;;46.11;21.58
13050;BME280;6591;51.446;5.404;2023-09-08T11:46:11;101304.94;;;46.09;21.22
13050;BME280;6591;51.446;5.404;2023-09-08T11:48:40;101303.25;;;46.08;21.88
13050;BME280;6591;51.446;5.404;2023-09-08T11:51:08;101304.94;;;46.09;21.14
13050;BME280;6591;51.446;5.404;2023-09-08T11:53:37;101306.63;;;46.10;20.96
13050;BME280;6591;51.446;5.404;2023-09-08T11:56:05;101307.97;;;46.12;20.91
13050;BME280;6591;51.446;5.404;2023-09-08T11:58:33;101317.84;;;46.10;20.87
13050;BME280;6591;51.446;5.404;2023-09-08T12:01:03;101311.44;;;46.04;20.68
13050;BME280;6591;51.446;5.404;2023-09-08T12:03:31;101310.00;;;46.07;20.64
13050;BME280;6591;51.446;5.404;2023-09-08T12:05:59;101309.16;;;46.11;20.60
13050;BME280;6591;51.446;5.404;2023-09-08T12:08:27;101300.31;;;46.23;21.26
13050;BME280;6591;51.446;5.404;2023-09-08T12:10:54;101309.75;;;46.37;21.17
13050;BME280;6591;51.446;5.404;2023-09-08T12:13:24;101305.38;;;46.50;21.26
13050;BME280;6591;51.446;5.404;2023-09-08T12:15:51;101299.38;;;46.61;20.75
13050;BME280;6591;51.446;5.404;2023-09-08T12:18:18;101309.38;;;46.72;20.48
13050;BME280;6591;51.446;5.404;2023-09-08T12:20:45;101312.06;;;46.83;20.90
13050;BME280;6591;51.446;5.404;2023-09-08T12:23:18;101307.72;;;46.90;20.24
13050;BME280;6591;51.446;5.404;2023-09-08T12:25:47;101308.53;;;46.96;20.13
13050;BME280;6591;51.446;5.404;2023-09-08T12:28:19;101308.03;;;46.94;19.70
13050;BME280;6591;51.446;5.404;2023-09-08T12:30:46;101300.16;;;46.91;20.33
13050;BME280;6591;51.446;5.404;2023-09-08T12:33:16;101300.75;;;46.88;20.01
13050;BME280;6591;51.446;5.404;2023-09-08T12:35:44;101307.50;;;46.87;20.40
13050;BME280;6591;51.446;5.404;2023-09-08T12:38:13;101300.81;;;46.83;19.58
13050;BME280;6591;51.446;5.404;2023-09-08T12:40:40;101306.28;;;46.74;20.29
13050;BME280;6591;51.446;5.404;2023-09-08T12:43:07;101299.88;;;46.68;20.26
13050;BME280;6591;51.446;5.404;2023-09-08T12:45:54;101299.09;;;46.63;20.20
13050;BME280;6591;51.446;5.404;2023-09-08T12:48:24;101298.25;;;46.62;20.35
13050;BME280;6591;51.446;5.404;2023-09-08T12:50:52;101291.78;;;46.62;20.59
13050;BME280;6591;51.446;5.404;2023-09-08T12:53:19;101297.41;;;46.62;20.34
13050;BME280;6591;51.446;5.404;2023-09-08T12:55:47;101296.00;;;46.59;20.35
13050;BME280;6591;51.446;5.404;2023-09-08T12:58:16;101294.69;;;46.52;19.64
13050;BME280;6591;51.446;5.404;2023-09-08T13:00:44;101290.31;;;46.41;19.92
13050;BME280;6591;51.446;5.404;2023-09-08T13:03:11;101285.88;;;46.34;19.84
13050;BME280;6591;51.446;5.404;2023-09-08T13:05:38;101279.16;;;46.30;20.65
13050;BME280;6591;51.446;5.404;2023-09-08T13:08:06;101288.44;;;46.31;20.55
13050;BME280;6591;51.446;5.404;2023-09-08T13:10:34;101286.22;;;46.28;20.13
13050;BME280;6591;51.446;5.404;2023-09-08T13:13:02;101278.47;;;46.15;19.91